createdAt,value
2023-01-08T00:01:36.984Z,17.77
2023-01-08T00:04:04.102Z,17.58
2023-01-08T00:06:31.326Z,16.10
2023-01-08T00:08:58.233Z,15.88
2023-01-08T00:11:25.260Z,17.75
2023-01-08T00:13:52.129Z,16.40
2023-01-08T00:16:20.341Z,15.63
2023-01-08T00:18:48.056Z,15.55
2023-01-08T00:21:15.079Z,14.07
2023-01-08T00:23:42.174Z,17.30
2023-01-08T00:26:10.470Z,15.43
2023-01-08T00:28:38.431Z,13.80
2023-01-08T00:31:06.778Z,16.73
2023-01-08T00:33:34.645Z,16.35
2023-01-08T00:36:06.834Z,15.52
2023-01-08T00:38:33.788Z,16.50
2023-01-08T00:41:00.811Z,15.15
2023-01-08T00:43:27.837Z,15.05
2023-01-08T00:45:55.219Z,15.32
2023-01-08T00:48:22.780Z,12.15
2023-01-08T00:50:50.275Z,11.80
2023-01-08T00:53:18.333Z,13.95
2023-01-08T00:55:45.324Z,16.67
2023-01-08T00:58:13.212Z,14.77
2023-01-08T01:00:40.704Z,14.55
2023-01-08T01:03:07.973Z,14.80
2023-01-08T01:05:34.871Z,14.43
2023-01-08T01:08:01.836Z,13.23
2023-01-08T01:10:29.056Z,15.25
2023-01-08T01:12:56.216Z,14.20
2023-01-08T01:15:23.210Z,11.97
2023-01-08T01:17:50.123Z,13.50
2023-01-08T01:20:17.372Z,16.30
2023-01-08T01:22:44.516Z,13.55
2023-01-08T01:25:14.425Z,14.88
2023-01-08T01:27:43.981Z,14.60
2023-01-08T01:30:11.446Z,15.90
2023-01-08T01:32:38.393Z,15.25
2023-01-08T01:35:05.877Z,13.02
2023-01-08T01:37:35.992Z,13.30
2023-01-08T01:40:02.945Z,13.27
2023-01-08T01:42:30.054Z,16.75
2023-01-08T01:44:57.105Z,15.52
2023-01-08T01:47:28.240Z,15.20
2023-01-08T01:50:08.673Z,13.63
2023-01-08T01:52:43.592Z,14.87
2023-01-08T01:55:12.830Z,14.77
2023-01-08T01:57:40.366Z,13.93
2023-01-08T02:00:08.840Z,13.60
2023-01-08T02:02:38.173Z,13.30
2023-01-08T02:05:05.534Z,13.43
2023-01-08T02:07:58.555Z,14.80
2023-01-08T02:10:31.203Z,14.20
2023-01-08T02:13:05.818Z,13.52
2023-01-08T02:15:38.761Z,12.65
2023-01-08T02:18:10.932Z,12.27
2023-01-08T02:20:44.076Z,14.85
2023-01-08T02:23:16.993Z,15.57
2023-01-08T02:26:05.516Z,14.32
2023-01-08T02:28:36.697Z,13.80
2023-01-08T02:31:04.808Z,13.63
2023-01-08T02:33:32.542Z,17.25
2023-01-08T02:36:16.312Z,14.82
2023-01-08T02:38:57.041Z,13.48
2023-01-08T02:41:28.982Z,14.52
2023-01-08T02:43:59.083Z,14.40
2023-01-08T02:46:30.999Z,16.27
2023-01-08T02:49:10.150Z,17.17
2023-01-08T02:51:51.700Z,16.52
2023-01-08T02:54:25.461Z,17.65
2023-01-08T02:57:04.552Z,18.93
2023-01-08T02:59:33.739Z,15.73
2023-01-08T03:02:03.211Z,20.38
2023-01-08T03:04:34.391Z,19.83
2023-01-08T03:07:02.513Z,18.27
2023-01-08T03:09:30.008Z,16.77
2023-01-08T03:12:02.545Z,17.38
2023-01-08T03:14:37.736Z,16.55
2023-01-08T03:17:13.396Z,17.92
2023-01-08T03:19:49.342Z,17.58
2023-01-08T03:22:18.230Z,16.30
2023-01-08T03:24:49.953Z,15.07
2023-01-08T03:27:21.689Z,16.48
2023-01-08T03:29:52.136Z,21.27
2023-01-08T03:32:21.596Z,15.05
2023-01-08T03:34:50.871Z,13.77
2023-01-08T03:37:23.135Z,13.07
2023-01-08T03:40:00.904Z,13.98
2023-01-08T03:42:31.341Z,28.50
2023-01-08T03:45:09.777Z,27.63
2023-01-08T03:47:39.310Z,15.90
2023-01-08T03:50:11.313Z,14.45
2023-01-08T03:52:44.577Z,12.20
2023-01-08T03:55:11.504Z,11.90
2023-01-08T03:57:38.455Z,9.88
2023-01-08T04:00:06.242Z,13.70
2023-01-08T04:02:33.333Z,11.93
2023-01-08T04:05:00.496Z,12.32
2023-01-08T04:07:27.740Z,11.98
2023-01-08T04:09:54.806Z,12.82
2023-01-08T04:12:21.746Z,12.57
2023-01-08T04:14:48.612Z,13.55
2023-01-08T04:17:15.521Z,12.15
2023-01-08T04:19:42.512Z,13.35
2023-01-08T04:22:12.912Z,12.95
2023-01-08T04:24:39.880Z,12.50
2023-01-08T04:27:06.911Z,11.52
2023-01-08T04:29:33.956Z,15.57
2023-01-08T04:32:00.973Z,29.55
2023-01-08T04:34:28.025Z,16.73
2023-01-08T04:36:54.939Z,12.67
2023-01-08T04:39:21.932Z,9.90
2023-01-08T04:41:48.780Z,11.85
2023-01-08T04:44:15.658Z,11.18
2023-01-08T04:46:42.641Z,10.93
2023-01-08T04:49:11.294Z,10.00
2023-01-08T04:51:38.617Z,8.77
2023-01-08T04:54:06.036Z,10.30
2023-01-08T04:56:33.151Z,9.40
2023-01-08T04:59:00.109Z,10.40
2023-01-08T05:01:28.190Z,8.43
2023-01-08T05:03:56.621Z,20.70
2023-01-08T05:06:24.298Z,157.43
2023-01-08T05:08:51.353Z,126.13
2023-01-08T05:11:18.351Z,28.73
2023-01-08T05:13:49.004Z,35.13
2023-01-08T05:16:16.269Z,52.83
2023-01-08T05:18:44.587Z,33.30
2023-01-08T05:21:12.163Z,31.42
2023-01-08T05:23:39.098Z,37.15
2023-01-08T05:26:07.299Z,25.93
2023-01-08T05:28:34.372Z,9.73
2023-01-08T05:31:01.471Z,12.27
2023-01-08T05:33:28.627Z,13.57
2023-01-08T05:35:55.795Z,7.90
2023-01-08T05:38:23.216Z,9.03
2023-01-08T05:40:53.094Z,8.15
2023-01-08T05:43:20.083Z,6.63
2023-01-08T05:45:46.958Z,7.82
2023-01-08T05:48:13.923Z,7.78
2023-01-08T05:50:40.857Z,8.43
2023-01-08T05:53:08.599Z,13.75
2023-01-08T05:55:35.894Z,10.75
2023-01-08T05:58:04.454Z,8.63
2023-01-08T06:00:32.474Z,8.65
2023-01-08T06:02:59.531Z,8.90
2023-01-08T06:05:26.702Z,11.45
2023-01-08T06:07:53.531Z,10.07
2023-01-08T06:10:20.421Z,12.55
2023-01-08T06:12:47.452Z,9.02
2023-01-08T06:15:14.427Z,8.07
2023-01-08T06:17:42.065Z,8.40
2023-01-08T06:20:09.822Z,8.43
2023-01-08T06:22:37.058Z,7.63
2023-01-08T06:25:04.432Z,7.07
2023-01-08T06:27:31.555Z,8.73
2023-01-08T06:29:58.574Z,8.55
2023-01-08T06:32:25.419Z,9.43
2023-01-08T06:34:52.462Z,12.00
2023-01-08T06:37:19.420Z,11.13
2023-01-08T06:39:46.351Z,7.90
2023-01-08T06:42:13.344Z,8.52
2023-01-08T06:44:42.768Z,9.52
2023-01-08T06:47:09.663Z,8.45
2023-01-08T06:49:36.533Z,6.93
2023-01-08T06:52:03.488Z,9.00
2023-01-08T06:54:30.397Z,6.88
2023-01-08T06:56:57.285Z,8.43
2023-01-08T06:59:24.306Z,9.35
2023-01-08T07:01:51.376Z,7.32
2023-01-08T07:04:22.317Z,6.67
2023-01-08T07:06:49.162Z,8.60
2023-01-08T07:09:16.322Z,10.88
2023-01-08T07:11:43.313Z,12.38
2023-01-08T07:14:13.051Z,14.57
2023-01-08T07:16:40.023Z,15.73
2023-01-08T07:19:07.695Z,11.90
2023-01-08T07:21:34.635Z,10.60
2023-01-08T07:24:01.659Z,12.18
2023-01-08T07:26:30.433Z,10.30
2023-01-08T07:28:57.498Z,15.33
2023-01-08T07:31:24.565Z,15.27
2023-01-08T07:33:51.601Z,19.77
2023-01-08T07:36:18.638Z,14.80
2023-01-08T07:38:45.585Z,12.15
2023-01-08T07:41:12.531Z,15.33
2023-01-08T07:43:39.336Z,12.70
2023-01-08T07:46:06.247Z,15.27
2023-01-08T07:48:33.356Z,13.70
2023-01-08T07:51:04.996Z,11.38
2023-01-08T07:53:32.516Z,10.97
2023-01-08T07:56:01.129Z,10.80
2023-01-08T07:58:28.307Z,14.63
2023-01-08T08:00:57.693Z,14.18
2023-01-08T08:03:26.075Z,16.55
2023-01-08T08:06:06.090Z,14.80
2023-01-08T08:08:32.992Z,14.23
2023-01-08T08:11:00.129Z,14.88
2023-01-08T08:13:27.159Z,17.70
2023-01-08T08:15:54.386Z,15.40
2023-01-08T08:18:21.295Z,13.90
2023-01-08T08:20:48.672Z,15.50
2023-01-08T08:23:15.699Z,10.98
2023-01-08T08:25:43.402Z,11.75
2023-01-08T08:28:12.074Z,11.05
2023-01-08T08:30:42.279Z,9.13
2023-01-08T08:33:10.941Z,11.88
2023-01-08T08:35:38.330Z,10.88
2023-01-08T08:38:05.716Z,10.10
2023-01-08T08:40:32.904Z,8.73
2023-01-08T08:43:02.099Z,10.47
2023-01-08T08:45:29.737Z,8.55
2023-01-08T08:47:57.159Z,11.82
2023-01-08T08:50:24.633Z,12.00
2023-01-08T08:52:51.769Z,13.20
2023-01-08T08:55:19.072Z,14.73
2023-01-08T08:57:47.215Z,14.10
2023-01-08T09:00:15.201Z,13.85
2023-01-08T09:02:45.009Z,13.98
2023-01-08T09:05:12.308Z,11.65
2023-01-08T09:07:39.198Z,12.23
2023-01-08T09:10:06.759Z,11.55
2023-01-08T09:12:33.663Z,10.93
2023-01-08T09:15:00.750Z,11.70
2023-01-08T09:17:30.335Z,13.00
2023-01-08T09:19:57.202Z,13.20
2023-01-08T09:22:24.119Z,13.50
2023-01-08T09:24:51.051Z,13.27
2023-01-08T09:27:17.927Z,12.02
2023-01-08T09:29:44.959Z,13.32
2023-01-08T09:32:12.564Z,11.80
2023-01-08T09:34:39.491Z,10.40
2023-01-08T09:37:06.947Z,11.27
2023-01-08T09:39:34.296Z,11.50
2023-01-08T09:42:05.884Z,11.98
2023-01-08T09:44:48.228Z,14.27
2023-01-08T09:47:25.361Z,12.65
2023-01-08T09:49:57.149Z,14.35
2023-01-08T09:52:24.375Z,12.05
2023-01-08T09:57:28.561Z,13.23
2023-01-08T09:59:55.514Z,12.57
2023-01-08T10:02:26.197Z,12.40
2023-01-08T10:04:59.057Z,12.45
2023-01-08T10:07:27.697Z,12.23
2023-01-08T10:09:55.830Z,12.43
2023-01-08T10:12:33.839Z,12.07
2023-01-08T10:15:03.688Z,13.63
2023-01-08T10:17:41.939Z,25.80
2023-01-08T10:20:11.934Z,12.95
2023-01-08T10:22:38.901Z,13.87
2023-01-08T10:25:12.902Z,13.68
2023-01-08T10:28:06.268Z,11.43
2023-01-08T10:30:39.475Z,13.55
2023-01-08T10:33:24.096Z,13.05
2023-01-08T10:36:06.342Z,13.57
2023-01-08T10:38:55.175Z,13.43
2023-01-08T10:41:22.548Z,12.93
2023-01-08T10:43:59.584Z,14.70
2023-01-08T10:46:31.113Z,15.73
2023-01-08T10:49:01.499Z,13.80
2023-01-08T10:51:31.087Z,15.45
2023-01-08T10:54:14.226Z,15.50
2023-01-08T10:56:43.848Z,16.10
2023-01-08T10:59:20.960Z,15.32
2023-01-08T11:01:49.307Z,16.00
2023-01-08T11:04:28.849Z,15.63
2023-01-08T11:06:56.120Z,16.90
2023-01-08T11:09:25.280Z,16.95
2023-01-08T11:11:52.452Z,17.48
2023-01-08T11:14:32.905Z,17.27
2023-01-08T11:17:00.057Z,18.42
2023-01-08T11:19:31.850Z,17.70
2023-01-08T11:22:20.413Z,18.10
2023-01-08T11:24:48.113Z,19.35
2023-01-08T11:27:30.977Z,18.87
2023-01-08T11:30:12.008Z,19.92
2023-01-08T11:33:05.440Z,21.02
2023-01-08T11:35:47.162Z,22.35
2023-01-08T11:38:14.311Z,21.63
2023-01-08T11:41:11.807Z,20.33
2023-01-08T11:43:56.273Z,21.85
2023-01-08T11:46:32.217Z,21.40
2023-01-08T11:49:17.415Z,22.67
2023-01-08T11:51:44.220Z,22.65
2023-01-08T11:54:48.333Z,23.90
2023-01-08T11:57:39.693Z,24.52
2023-01-08T12:00:32.339Z,22.20
2023-01-08T12:03:02.756Z,24.27
2023-01-08T12:05:50.305Z,24.80
2023-01-08T12:08:22.580Z,24.80
2023-01-08T12:11:23.323Z,25.40
2023-01-08T12:14:02.595Z,23.88
2023-01-08T12:16:45.146Z,24.00
2023-01-08T12:19:30.510Z,27.52
2023-01-08T12:22:19.159Z,28.10
2023-01-08T12:25:13.713Z,29.98
2023-01-08T12:27:59.167Z,30.60
2023-01-08T12:31:14.231Z,28.08
2023-01-08T12:33:48.340Z,26.60
2023-01-08T12:36:41.701Z,26.67
2023-01-08T12:39:27.147Z,26.50
2023-01-08T12:41:56.959Z,27.17
2023-01-08T12:44:28.564Z,26.98
2023-01-08T12:47:01.215Z,27.85
2023-01-08T12:50:03.909Z,24.97
2023-01-08T12:52:46.009Z,24.88
2023-01-08T12:55:34.638Z,23.50
2023-01-08T12:58:23.614Z,21.75
2023-01-08T13:01:22.806Z,22.77
2023-01-08T13:03:52.398Z,21.77
2023-01-08T13:06:20.410Z,21.73
2023-01-08T13:08:53.184Z,22.33
2023-01-08T13:11:37.330Z,20.85
2023-01-08T13:14:05.849Z,22.50
2023-01-08T13:16:42.231Z,19.93
2023-01-08T13:19:27.900Z,21.90
2023-01-08T13:21:57.589Z,21.85
2023-01-08T13:24:38.861Z,21.85
2023-01-08T13:27:17.676Z,21.25
2023-01-08T13:29:51.651Z,22.73
2023-01-08T13:32:48.023Z,24.05
2023-01-08T13:35:14.980Z,23.77
2023-01-08T13:37:43.248Z,24.23
2023-01-08T13:40:44.260Z,23.52
2023-01-08T13:43:35.697Z,23.70
2023-01-08T13:46:02.571Z,23.00
2023-01-08T13:48:49.703Z,23.92
2023-01-08T13:51:39.480Z,23.45
2023-01-08T13:54:17.765Z,24.35
2023-01-08T13:56:47.020Z,24.33
2023-01-08T13:59:54.381Z,25.70
2023-01-08T14:02:33.361Z,29.60
2023-01-08T14:05:02.652Z,26.83
2023-01-08T14:07:29.744Z,26.67
2023-01-08T14:10:07.824Z,25.37
2023-01-08T14:12:35.306Z,26.80
2023-01-08T14:15:02.351Z,25.95
2023-01-08T14:17:32.765Z,25.40
2023-01-08T14:20:00.004Z,25.88
2023-01-08T14:22:32.692Z,26.90
2023-01-08T14:25:05.943Z,24.50
2023-01-08T14:27:33.827Z,22.75
2023-01-08T14:30:00.871Z,22.45
2023-01-08T14:32:30.413Z,21.13
2023-01-08T14:34:59.683Z,21.13
2023-01-08T14:37:26.773Z,20.85
2023-01-08T14:39:54.910Z,22.10
2023-01-08T14:42:32.737Z,23.83
2023-01-08T14:45:05.252Z,23.75
2023-01-08T14:47:40.555Z,22.27
2023-01-08T14:50:16.803Z,23.05
2023-01-08T14:52:43.879Z,21.55
2023-01-08T14:55:18.977Z,22.85
2023-01-08T14:57:53.123Z,21.67
2023-01-08T15:00:25.520Z,23.60
2023-01-08T15:02:52.777Z,21.73
2023-01-08T15:05:29.328Z,20.80
2023-01-08T15:08:22.070Z,21.23
2023-01-08T15:10:59.157Z,22.35
2023-01-08T15:13:31.553Z,22.23
2023-01-08T15:16:12.311Z,23.13
2023-01-08T15:18:48.167Z,27.25
2023-01-08T15:21:24.078Z,26.77
2023-01-08T15:23:53.989Z,26.40
2023-01-08T15:26:21.910Z,26.90
2023-01-08T15:29:05.805Z,23.65
2023-01-08T15:31:33.725Z,22.77
2023-01-08T15:34:01.275Z,22.65
2023-01-08T15:36:28.421Z,21.80
2023-01-08T15:38:55.359Z,21.57
2023-01-08T15:41:25.297Z,21.92
2023-01-08T15:43:52.112Z,21.75
2023-01-08T15:46:19.050Z,23.98
2023-01-08T15:48:46.018Z,23.63
2023-01-08T15:51:13.029Z,20.23
2023-01-08T15:53:39.881Z,22.67
2023-01-08T15:56:07.041Z,22.00
2023-01-08T15:58:33.982Z,23.15
2023-01-08T16:01:00.995Z,23.27
2023-01-08T16:03:27.998Z,22.97
2023-01-08T16:05:54.813Z,22.17
2023-01-08T16:08:21.765Z,21.83
2023-01-08T16:10:53.042Z,18.88
2023-01-08T16:13:19.983Z,21.65
2023-01-08T16:15:46.799Z,18.30
2023-01-08T16:18:13.673Z,18.45
2023-01-08T16:20:40.605Z,17.88
2023-01-08T16:23:07.640Z,21.58
2023-01-08T16:25:34.892Z,27.15
2023-01-08T16:28:02.479Z,26.53
2023-01-08T16:30:29.471Z,27.05
2023-01-08T16:32:56.462Z,23.33
2023-01-08T16:35:23.297Z,24.00
2023-01-08T16:37:50.268Z,21.10
2023-01-08T16:40:17.348Z,22.07
2023-01-08T16:42:44.254Z,23.48
2023-01-08T16:45:11.043Z,24.70
2023-01-08T16:47:43.303Z,25.60
2023-01-08T16:50:11.453Z,24.85
2023-01-08T16:52:39.073Z,25.47
2023-01-08T16:55:06.973Z,24.95
2023-01-08T16:57:33.975Z,25.23
2023-01-08T17:00:01.034Z,21.92
2023-01-08T17:02:32.402Z,21.95
2023-01-08T17:04:59.343Z,22.43
2023-01-08T17:07:26.388Z,22.33
2023-01-08T17:09:53.433Z,22.77
2023-01-08T17:12:20.544Z,25.10
2023-01-08T17:14:47.515Z,21.27
2023-01-08T17:17:14.487Z,22.00
2023-01-08T17:19:41.387Z,22.27
2023-01-08T17:22:08.376Z,22.92
2023-01-08T17:24:35.279Z,24.27
2023-01-08T17:27:02.310Z,23.50
2023-01-08T17:29:29.322Z,23.13
2023-01-08T17:31:56.254Z,23.00
2023-01-08T17:34:23.212Z,22.90
2023-01-08T17:36:50.133Z,21.80
2023-01-08T17:39:17.141Z,17.88
2023-01-08T17:41:44.155Z,21.07
2023-01-08T17:44:13.263Z,20.30
2023-01-08T17:46:42.359Z,21.38
2023-01-08T17:49:10.519Z,21.52
2023-01-08T17:51:37.342Z,22.10
2023-01-08T17:54:04.841Z,21.27
2023-01-08T17:56:31.789Z,21.63
2023-01-08T17:59:01.896Z,22.70
2023-01-08T18:01:31.503Z,23.00
2023-01-08T18:03:58.933Z,20.58
2023-01-08T18:06:25.975Z,24.10
2023-01-08T18:08:53.306Z,22.77
2023-01-08T18:11:20.285Z,22.92
2023-01-08T18:13:47.196Z,21.58
2023-01-08T18:16:15.021Z,22.95
2023-01-08T18:18:42.073Z,26.40
2023-01-08T18:21:09.463Z,22.70
2023-01-08T18:23:36.559Z,22.70
2023-01-08T18:26:09.881Z,22.40
2023-01-08T18:28:37.938Z,18.45
2023-01-08T18:31:09.690Z,17.43
2023-01-08T18:33:37.433Z,19.70
2023-01-08T18:36:06.902Z,22.45
2023-01-08T18:38:33.953Z,19.80
2023-01-08T18:41:01.276Z,21.13
2023-01-08T18:43:28.227Z,18.77
2023-01-08T18:46:06.839Z,21.27
2023-01-08T18:48:36.725Z,21.13
2023-01-08T18:51:04.448Z,20.80
2023-01-08T18:53:34.636Z,20.50
2023-01-08T18:56:02.285Z,21.60
2023-01-08T18:58:30.105Z,21.88
2023-01-08T19:01:05.409Z,22.75
2023-01-08T19:03:34.021Z,23.75
2023-01-08T19:06:03.714Z,17.83
2023-01-08T19:08:30.643Z,19.97
2023-01-08T19:10:59.342Z,20.15
2023-01-08T19:13:28.124Z,22.40
2023-01-08T19:15:55.660Z,22.45
2023-01-08T19:18:24.225Z,21.70
2023-01-08T19:20:51.848Z,22.27
2023-01-08T19:23:19.512Z,20.55
2023-01-08T19:25:48.681Z,17.88
2023-01-08T19:28:15.718Z,18.63
2023-01-08T19:30:43.079Z,19.80
2023-01-08T19:33:10.969Z,17.77
2023-01-08T19:35:42.110Z,17.65
2023-01-08T19:38:09.252Z,18.42
2023-01-08T19:40:36.192Z,20.60
2023-01-08T19:43:03.139Z,20.95
2023-01-08T19:45:30.751Z,19.23
2023-01-08T19:47:57.923Z,19.65
2023-01-08T19:50:24.944Z,19.98
2023-01-08T19:52:51.871Z,19.48
2023-01-08T19:55:19.183Z,17.05
2023-01-08T19:57:46.033Z,17.70
2023-01-08T20:00:13.419Z,17.13
2023-01-08T20:02:40.457Z,20.60
2023-01-08T20:05:07.806Z,19.40
2023-01-08T20:07:34.777Z,22.27
2023-01-08T20:10:01.768Z,25.20
2023-01-08T20:12:28.725Z,25.90
2023-01-08T20:14:55.673Z,20.08
2023-01-08T20:17:22.619Z,19.65
2023-01-08T20:19:50.205Z,20.38
2023-01-08T20:22:17.452Z,18.47
2023-01-08T20:24:45.078Z,16.67
2023-01-08T20:27:12.059Z,19.65
2023-01-08T20:29:39.228Z,19.67
2023-01-08T20:32:06.124Z,21.50
2023-01-08T20:34:33.285Z,19.80
2023-01-08T20:37:04.247Z,19.85
2023-01-08T20:39:31.657Z,21.20
2023-01-08T20:42:04.187Z,20.10
2023-01-08T20:44:33.331Z,20.83
2023-01-08T20:47:01.425Z,19.67
2023-01-08T20:49:36.086Z,21.65
2023-01-08T20:52:05.317Z,20.13
2023-01-08T20:54:39.821Z,23.92
2023-01-08T20:57:06.951Z,20.55
2023-01-08T20:59:36.368Z,20.57
2023-01-08T21:02:06.702Z,20.60
2023-01-08T21:04:33.817Z,19.35
2023-01-08T21:07:00.807Z,19.63
2023-01-08T21:09:27.850Z,18.52
2023-01-08T21:11:54.715Z,15.83
2023-01-08T21:14:22.099Z,18.23
2023-01-08T21:16:49.160Z,15.52
2023-01-08T21:19:16.702Z,17.17
2023-01-08T21:21:43.673Z,16.80
2023-01-08T21:24:13.102Z,17.23
2023-01-08T21:26:40.370Z,19.83
2023-01-08T21:29:08.249Z,23.15
2023-01-08T21:31:36.263Z,30.38
2023-01-08T21:34:07.045Z,39.30
2023-01-08T21:36:33.989Z,29.80
2023-01-08T21:39:02.152Z,38.30
2023-01-08T21:41:30.215Z,31.02
2023-01-08T21:43:57.155Z,29.95
2023-01-08T21:46:27.273Z,40.75
2023-01-08T21:48:57.017Z,28.67
2023-01-08T21:51:23.953Z,21.65
2023-01-08T21:53:50.774Z,32.28
2023-01-08T21:56:17.696Z,25.65
2023-01-08T21:58:44.554Z,22.83
2023-01-08T22:01:11.547Z,23.80
2023-01-08T22:03:38.709Z,31.02
2023-01-08T22:06:07.101Z,31.20
2023-01-08T22:08:34.425Z,29.00
2023-01-08T22:11:05.400Z,24.60
2023-01-08T22:13:32.315Z,23.20
2023-01-08T22:16:08.147Z,25.40
2023-01-08T22:18:36.028Z,23.08
2023-01-08T22:21:07.873Z,29.85
2023-01-08T22:23:35.093Z,23.65
2023-01-08T22:26:07.320Z,21.67
2023-01-08T22:28:34.473Z,31.02
2023-01-08T22:31:05.927Z,23.65
2023-01-08T22:33:32.885Z,25.75
2023-01-08T22:36:01.733Z,29.42
2023-01-08T22:38:28.641Z,22.13
2023-01-08T22:40:55.516Z,24.40
2023-01-08T22:43:23.298Z,26.88
2023-01-08T22:45:58.049Z,26.10
2023-01-08T22:48:25.907Z,22.45
2023-01-08T22:50:53.235Z,30.37
2023-01-08T22:53:20.357Z,24.17
2023-01-08T22:55:48.320Z,29.52
2023-01-08T22:58:16.497Z,24.58
2023-01-08T23:00:43.736Z,25.13
2023-01-08T23:03:11.083Z,31.43
2023-01-08T23:05:38.170Z,29.05
2023-01-08T23:08:06.125Z,22.10
2023-01-08T23:10:33.551Z,23.77
2023-01-08T23:13:00.521Z,27.08
2023-01-08T23:15:27.479Z,23.30
2023-01-08T23:17:54.341Z,24.52
2023-01-08T23:20:21.839Z,21.30
2023-01-08T23:22:49.035Z,24.45
2023-01-08T23:25:16.706Z,22.95
2023-01-08T23:27:43.540Z,20.73
2023-01-08T23:30:11.434Z,23.85
2023-01-08T23:32:38.274Z,21.13
2023-01-08T23:35:09.326Z,21.33
2023-01-08T23:37:36.132Z,23.08
2023-01-08T23:40:03.111Z,20.83
2023-01-08T23:42:30.215Z,18.80
2023-01-08T23:44:57.211Z,21.60
2023-01-08T23:47:24.180Z,22.70
2023-01-08T23:49:51.158Z,20.75
2023-01-08T23:52:18.007Z,18.30
2023-01-08T23:54:44.959Z,18.45
2023-01-08T23:57:11.927Z,17.98
2023-01-08T23:59:38.717Z,16.85
